Alexander 3 — SW6137 — position and weather

sailwx.info

Track history (hours):
 
Tides and Currents Weather Stations Pressure Air Temp Water Temp Dewpoint Dewpoint Depression Visibility Wind Speed Wind Dir Waves Ship Positions

Alexander 3

Last reported at 2014-Oct-22 14:33 UTC. Time now 2014-Oct-23 00:38 UTC.
Position N 37°57' E 023°36'.

Length 28 m; draft 5.6 m.

Type: Tug. MMSI: 240733000.

Date/timePositionNaut miles runAvg speedWind from/ knotsBaromVisibWave heightAir tempDewpointWater temp
2014-Oct-22 14:33N 37°57' E 023°36'1 0.7
2014-Oct-22 13:33N 37°57' E 023°35'0 0.2
2014-Oct-22 12:33N 37°57' E 023°35'0 0.2
2014-Oct-22 11:33N 37°57' E 023°35'0 0.0
2014-Oct-22 10:33N 37°57' E 023°35'1 1.0
2014-Oct-22 09:33N 37°57' E 023°36'0 0.0
2014-Oct-22 08:33N 37°57' E 023°36'0 0.0
2014-Oct-22 07:33N 37°57' E 023°36'0 0.0
2014-Oct-22 06:33N 37°57' E 023°36'0 0.0
2014-Oct-22 05:33N 37°57' E 023°36'0 0.0
2014-Oct-22 04:33N 37°57' E 023°36'0 0.0
2014-Oct-22 03:33N 37°57' E 023°36'0 0.0
2014-Oct-22 02:33N 37°57' E 023°36'0 0.0
2014-Oct-22 01:33N 37°57' E 023°36'0 0.0
2014-Oct-22 00:33N 37°57' E 023°36'0 0.0
2014-Oct-21 23:33N 37°57' E 023°36'0 0.5
2014-Oct-21 22:33N 37°57' E 023°36'2 1.7
2014-Oct-21 21:33N 37°56' E 023°37'0 0.0
2014-Oct-21 20:33N 37°56' E 023°37'0 0.0
2014-Oct-21 19:33N 37°56' E 023°37'0 0.0
2014-Oct-21 18:33N 37°56' E 023°37'0 0.0
2014-Oct-21 17:33N 37°56' E 023°37'0 0.0
2014-Oct-21 16:33N 37°56' E 023°37'0 0.0
2014-Oct-21 15:33N 37°56' E 023°37'0 0.0
2014-Oct-21 14:33N 37°56' E 023°37'0 0.0
2014-Oct-21 13:33N 37°56' E 023°37'0 0.0
2014-Oct-21 12:33N 37°56' E 023°37'1 0.7
2014-Oct-21 11:33N 37°56' E 023°38'0 0.3
2014-Oct-21 10:33N 37°57' E 023°38'0 0.0
2014-Oct-21 09:33N 37°57' E 023°38'0 0.0
2014-Oct-21 08:33N 37°57' E 023°38'0 0.0
2014-Oct-21 07:33N 37°57' E 023°38'0 0.0
2014-Oct-21 06:33N 37°57' E 023°38'2 2.1
2014-Oct-21 05:33N 37°57' E 023°36'1 0.5
2014-Oct-21 04:33N 37°57' E 023°35'1 0.9
2014-Oct-21 03:33N 37°57' E 023°36'0 0.0
2014-Oct-21 02:33N 37°57' E 023°36'0 0.0
2014-Oct-21 01:33N 37°57' E 023°36'0 0.0
2014-Oct-21 00:33N 37°57' E 023°36'1 0.8
2014-Oct-20 23:33N 37°57' E 023°35'2 2.0
2014-Oct-20 22:33N 37°56' E 023°37'0 0.0
2014-Oct-20 10:33N 37°56' E 023°37'0 0.0
2014-Oct-20 09:33N 37°56' E 023°37'0 0.0
2014-Oct-20 08:33N 37°56' E 023°37'0 0.0
2014-Oct-20 07:33N 37°56' E 023°37'0 0.0
2014-Oct-20 06:33N 37°56' E 023°37'2 1.6
2014-Oct-20 05:33N 37°57' E 023°36'2 1.5
2014-Oct-20 04:33N 37°56' E 023°35'2 1.5
2014-Oct-20 03:33N 37°56' E 023°37'1 0.0
2014-Oct-18 22:20N 37°56' E 023°37'2 2.6
2014-Oct-18 21:34N 37°57' E 023°35'1 0.6
2014-Oct-18 20:34N 37°57' E 023°35'0 0.3
2014-Oct-18 19:33N 37°57' E 023°36'1 0.9
2014-Oct-18 18:33N 37°57' E 023°37'0 0.0
2014-Oct-18 17:33N 37°57' E 023°37'0 0.0
2014-Oct-18 16:34N 37°57' E 023°37'0 0.0
2014-Oct-18 15:34N 37°57' E 023°37'0 0.0
2014-Oct-18 14:34N 37°57' E 023°37'0 0.0
2014-Oct-18 13:34N 37°57' E 023°37'0 0.0
2014-Oct-18 12:34N 37°57' E 023°37'1 1.5
2014-Oct-18 11:33N 37°56' E 023°37'0 0.0
2014-Oct-18 10:34N 37°56' E 023°37'4 3.9
2014-Oct-18 09:34N 37°58' E 023°33'4 4.1
2014-Oct-18 08:33N 38°01' E 023°35'4 4.1
2014-Oct-18 07:33N 37°58' E 023°33'1 0.7
2014-Oct-18 06:33N 37°58' E 023°34'2 1.9
2014-Oct-18 05:34N 37°57' E 023°36'2 1.9
2014-Oct-18 04:34N 37°56' E 023°37'0 0.3
2014-Oct-18 03:34N 37°56' E 023°37'1 0.0
2014-Oct-16 10:33N 37°57' E 023°36'1 0.8
2014-Oct-16 09:33N 37°57' E 023°37'0 0.0
2014-Oct-16 08:33N 37°57' E 023°37'0 0.0
2014-Oct-16 07:33N 37°57' E 023°37'0 0.0
2014-Oct-16 06:33N 37°57' E 023°37'0 0.0
2014-Oct-16 05:33N 37°57' E 023°37'0 0.4
2014-Oct-16 04:33N 37°57' E 023°36'2 1.6
2014-Oct-16 03:33N 37°56' E 023°37'0 0.0
2014-Oct-16 02:33N 37°56' E 023°37'0 0.0
2014-Oct-16 01:33N 37°56' E 023°37'0 0.0
2014-Oct-16 00:33N 37°56' E 023°37'0 0.0
2014-Oct-15 23:33N 37°56' E 023°37'0 0.0
2014-Oct-15 22:30N 37°56' E 023°37'0 0.0
2014-Oct-15 21:33N 37°56' E 023°37'0 0.0
2014-Oct-15 20:33N 37°56' E 023°37'1 1.1
2014-Oct-15 19:33N 37°57' E 023°36'0 0.3
2014-Oct-15 18:33N 37°56' E 023°36'1 1.1
2014-Oct-15 17:33N 37°57' E 023°37'0 0.0
2014-Oct-15 16:33N 37°57' E 023°37'0 0.0
2014-Oct-15 15:33N 37°57' E 023°37'0 0.0
2014-Oct-15 14:33N 37°57' E 023°37'0 0.0
2014-Oct-15 13:33N 37°57' E 023°37'0 0.0
2014-Oct-15 12:33N 37°57' E 023°37'1 1.0
2014-Oct-15 11:33N 37°57' E 023°35'1 0.8
2014-Oct-15 10:33N 37°57' E 023°36'1 0.9
2014-Oct-15 09:33N 37°57' E 023°35'1 0.8
2014-Oct-15 08:33N 37°57' E 023°36'0 0.0
2014-Oct-15 07:33N 37°57' E 023°36'0 0.0
2014-Oct-15 06:33N 37°57' E 023°36'0 0.0
2014-Oct-15 05:33N 37°57' E 023°36'0 0.0
2014-Oct-15 04:33N 37°57' E 023°36'0 0.5
2014-Oct-15 03:33N 37°57' E 023°36'0 0.0
2014-Oct-14 11:33N 37°57' E 023°36'0 0.3
2014-Oct-14 10:33N 37°57' E 023°35'0 0.3
2014-Oct-14 09:33N 37°57' E 023°35'1 0.9
2014-Oct-14 08:33N 37°57' E 023°34'0 0.3
2014-Oct-14 07:33N 37°58' E 023°34'1 0.5
2014-Oct-14 06:33N 37°57' E 023°33'1 0.5
2014-Oct-14 05:33N 37°58' E 023°34'1 1.2
2014-Oct-14 04:33N 37°57' E 023°35'1 1.0
2014-Oct-14 03:33N 37°57' E 023°36'2 1.7
2014-Oct-14 02:33N 37°56' E 023°37'0 0.0
2014-Oct-13 17:34N 37°56' E 023°37'0 0.0
2014-Oct-13 16:34N 37°56' E 023°37'0 0.0
2014-Oct-13 15:34N 37°56' E 023°37'0 0.0
2014-Oct-13 14:34N 37°56' E 023°37'0 0.0
2014-Oct-13 13:34N 37°56' E 023°37'0 0.0
2014-Oct-13 12:34N 37°56' E 023°37'0 0.0
2014-Oct-13 11:33N 37°56' E 023°37'0 0.0
2014-Oct-13 10:34N 37°56' E 023°37'0 0.0
2014-Oct-13 09:33N 37°56' E 023°37'0 0.0
2014-Oct-13 08:33N 37°56' E 023°37'0 0.0
2014-Oct-13 07:32N 37°56' E 023°37'1 1.1
2014-Oct-13 06:33N 37°56' E 023°36'1 1.2
2014-Oct-13 05:32N 37°57' E 023°36'1 1.4
2014-Oct-13 04:34N 37°56' E 023°35'1 1.4
2014-Oct-13 03:34N 37°57' E 023°35'  
Track history (hours):
 
Tides and Currents Weather Stations Pressure Air Temp Water Temp Dewpoint Dewpoint Depression Visibility Wind Speed Wind Dir Waves Ship Positions

Alexander 3

Last reported at 2014-Oct-22 14:33 UTC. Time now 2014-Oct-23 00:38 UTC.
Position N 37°57' E 023°36'.

Length 28 m; draft 5.6 m.

Type: Tug. MMSI: 240733000.

Date/timePositionNaut miles runAvg speedWind from/ knotsBaromVisibWave heightAir tempDewpointWater temp
2014-Oct-22 14:33N 37°57' E 023°36'1 0.7
2014-Oct-22 13:33N 37°57' E 023°35'0 0.2
2014-Oct-22 12:33N 37°57' E 023°35'0 0.2
2014-Oct-22 11:33N 37°57' E 023°35'0 0.0
2014-Oct-22 10:33N 37°57' E 023°35'1 1.0
2014-Oct-22 09:33N 37°57' E 023°36'0 0.0
2014-Oct-22 08:33N 37°57' E 023°36'0 0.0
2014-Oct-22 07:33N 37°57' E 023°36'0 0.0
2014-Oct-22 06:33N 37°57' E 023°36'0 0.0
2014-Oct-22 05:33N 37°57' E 023°36'0 0.0
2014-Oct-22 04:33N 37°57' E 023°36'0 0.0
2014-Oct-22 03:33N 37°57' E 023°36'0 0.0
2014-Oct-22 02:33N 37°57' E 023°36'0 0.0
2014-Oct-22 01:33N 37°57' E 023°36'0 0.0
2014-Oct-22 00:33N 37°57' E 023°36'0 0.0
2014-Oct-21 23:33N 37°57' E 023°36'0 0.5
2014-Oct-21 22:33N 37°57' E 023°36'2 1.7
2014-Oct-21 21:33N 37°56' E 023°37'0 0.0
2014-Oct-21 20:33N 37°56' E 023°37'0 0.0
2014-Oct-21 19:33N 37°56' E 023°37'0 0.0
2014-Oct-21 18:33N 37°56' E 023°37'0 0.0
2014-Oct-21 17:33N 37°56' E 023°37'0 0.0
2014-Oct-21 16:33N 37°56' E 023°37'0 0.0
2014-Oct-21 15:33N 37°56' E 023°37'0 0.0
2014-Oct-21 14:33N 37°56' E 023°37'0 0.0
2014-Oct-21 13:33N 37°56' E 023°37'0 0.0
2014-Oct-21 12:33N 37°56' E 023°37'1 0.7
2014-Oct-21 11:33N 37°56' E 023°38'0 0.3
2014-Oct-21 10:33N 37°57' E 023°38'0 0.0
2014-Oct-21 09:33N 37°57' E 023°38'0 0.0
2014-Oct-21 08:33N 37°57' E 023°38'0 0.0
2014-Oct-21 07:33N 37°57' E 023°38'0 0.0
2014-Oct-21 06:33N 37°57' E 023°38'2 2.1
2014-Oct-21 05:33N 37°57' E 023°36'1 0.5
2014-Oct-21 04:33N 37°57' E 023°35'1 0.9
2014-Oct-21 03:33N 37°57' E 023°36'0 0.0
2014-Oct-21 02:33N 37°57' E 023°36'0 0.0
2014-Oct-21 01:33N 37°57' E 023°36'0 0.0
2014-Oct-21 00:33N 37°57' E 023°36'1 0.8
2014-Oct-20 23:33N 37°57' E 023°35'2 2.0
2014-Oct-20 22:33N 37°56' E 023°37'0 0.0
2014-Oct-20 10:33N 37°56' E 023°37'0 0.0
2014-Oct-20 09:33N 37°56' E 023°37'0 0.0
2014-Oct-20 08:33N 37°56' E 023°37'0 0.0
2014-Oct-20 07:33N 37°56' E 023°37'0 0.0
2014-Oct-20 06:33N 37°56' E 023°37'2 1.6
2014-Oct-20 05:33N 37°57' E 023°36'2 1.5
2014-Oct-20 04:33N 37°56' E 023°35'2 1.5
2014-Oct-20 03:33N 37°56' E 023°37'1 0.0
2014-Oct-18 22:20N 37°56' E 023°37'2 2.6
2014-Oct-18 21:34N 37°57' E 023°35'1 0.6
2014-Oct-18 20:34N 37°57' E 023°35'0 0.3
2014-Oct-18 19:33N 37°57' E 023°36'1 0.9
2014-Oct-18 18:33N 37°57' E 023°37'0 0.0
2014-Oct-18 17:33N 37°57' E 023°37'0 0.0
2014-Oct-18 16:34N 37°57' E 023°37'0 0.0
2014-Oct-18 15:34N 37°57' E 023°37'0 0.0
2014-Oct-18 14:34N 37°57' E 023°37'0 0.0
2014-Oct-18 13:34N 37°57' E 023°37'0 0.0
2014-Oct-18 12:34N 37°57' E 023°37'1 1.5
2014-Oct-18 11:33N 37°56' E 023°37'0 0.0
2014-Oct-18 10:34N 37°56' E 023°37'4 3.9
2014-Oct-18 09:34N 37°58' E 023°33'4 4.1
2014-Oct-18 08:33N 38°01' E 023°35'4 4.1
2014-Oct-18 07:33N 37°58' E 023°33'1 0.7
2014-Oct-18 06:33N 37°58' E 023°34'2 1.9
2014-Oct-18 05:34N 37°57' E 023°36'2 1.9
2014-Oct-18 04:34N 37°56' E 023°37'0 0.3
2014-Oct-18 03:34N 37°56' E 023°37'1 0.0
2014-Oct-16 10:33N 37°57' E 023°36'1 0.8
2014-Oct-16 09:33N 37°57' E 023°37'0 0.0
2014-Oct-16 08:33N 37°57' E 023°37'0 0.0
2014-Oct-16 07:33N 37°57' E 023°37'0 0.0
2014-Oct-16 06:33N 37°57' E 023°37'0 0.0
2014-Oct-16 05:33N 37°57' E 023°37'0 0.4
2014-Oct-16 04:33N 37°57' E 023°36'2 1.6
2014-Oct-16 03:33N 37°56' E 023°37'0 0.0
2014-Oct-16 02:33N 37°56' E 023°37'0 0.0
2014-Oct-16 01:33N 37°56' E 023°37'0 0.0
2014-Oct-16 00:33N 37°56' E 023°37'0 0.0
2014-Oct-15 23:33N 37°56' E 023°37'0 0.0
2014-Oct-15 22:30N 37°56' E 023°37'0 0.0
2014-Oct-15 21:33N 37°56' E 023°37'0 0.0
2014-Oct-15 20:33N 37°56' E 023°37'1 1.1
2014-Oct-15 19:33N 37°57' E 023°36'0 0.3
2014-Oct-15 18:33N 37°56' E 023°36'1 1.1
2014-Oct-15 17:33N 37°57' E 023°37'0 0.0
2014-Oct-15 16:33N 37°57' E 023°37'0 0.0
2014-Oct-15 15:33N 37°57' E 023°37'0 0.0
2014-Oct-15 14:33N 37°57' E 023°37'0 0.0
2014-Oct-15 13:33N 37°57' E 023°37'0 0.0
2014-Oct-15 12:33N 37°57' E 023°37'1 1.0
2014-Oct-15 11:33N 37°57' E 023°35'1 0.8
2014-Oct-15 10:33N 37°57' E 023°36'1 0.9
2014-Oct-15 09:33N 37°57' E 023°35'1 0.8
2014-Oct-15 08:33N 37°57' E 023°36'0 0.0
2014-Oct-15 07:33N 37°57' E 023°36'0 0.0
2014-Oct-15 06:33N 37°57' E 023°36'0 0.0
2014-Oct-15 05:33N 37°57' E 023°36'0 0.0
2014-Oct-15 04:33N 37°57' E 023°36'0 0.5
2014-Oct-15 03:33N 37°57' E 023°36'0 0.0
2014-Oct-14 11:33N 37°57' E 023°36'0 0.3
2014-Oct-14 10:33N 37°57' E 023°35'0 0.3
2014-Oct-14 09:33N 37°57' E 023°35'1 0.9
2014-Oct-14 08:33N 37°57' E 023°34'0 0.3
2014-Oct-14 07:33N 37°58' E 023°34'1 0.5
2014-Oct-14 06:33N 37°57' E 023°33'1 0.5
2014-Oct-14 05:33N 37°58' E 023°34'1 1.2
2014-Oct-14 04:33N 37°57' E 023°35'1 1.0
2014-Oct-14 03:33N 37°57' E 023°36'2 1.7
2014-Oct-14 02:33N 37°56' E 023°37'0 0.0
2014-Oct-13 17:34N 37°56' E 023°37'0 0.0
2014-Oct-13 16:34N 37°56' E 023°37'0 0.0
2014-Oct-13 15:34N 37°56' E 023°37'0 0.0
2014-Oct-13 14:34N 37°56' E 023°37'0 0.0
2014-Oct-13 13:34N 37°56' E 023°37'0 0.0
2014-Oct-13 12:34N 37°56' E 023°37'0 0.0
2014-Oct-13 11:33N 37°56' E 023°37'0 0.0
2014-Oct-13 10:34N 37°56' E 023°37'0 0.0
2014-Oct-13 09:33N 37°56' E 023°37'0 0.0
2014-Oct-13 08:33N 37°56' E 023°37'0 0.0
2014-Oct-13 07:32N 37°56' E 023°37'1 1.1
2014-Oct-13 06:33N 37°56' E 023°36'1 1.2
2014-Oct-13 05:32N 37°57' E 023°36'1 1.4
2014-Oct-13 04:34N 37°56' E 023°35'1 1.4
2014-Oct-13 03:34N 37°57' E 023°35'  

Dump ship's entire track history